sensor_id;sensor_type;location;lat;lon;timestamp;pressure;altitude;pressure_sealevel;temperature;humidity
7586;BME280;12459;42.646;23.292;2022-08-01T00:01:26;93539.59;;;21.32;52.43
7586;BME280;12459;42.646;23.292;2022-08-01T00:16:28;93534.41;;;21.19;50.47
7586;BME280;12459;42.646;23.292;2022-08-01T00:31:30;93523.91;;;20.97;49.15
7586;BME280;12459;42.646;23.292;2022-08-01T00:46:32;93525.88;;;21.61;50.13
7586;BME280;12459;42.646;23.292;2022-08-01T01:01:33;93525.75;;;21.35;50.32
7586;BME280;12459;42.646;23.292;2022-08-01T01:16:40;93516.75;;;20.56;50.93
7586;BME280;12459;42.646;23.292;2022-08-01T01:31:52;93498.34;;;20.65;49.59
7586;BME280;12459;42.646;23.292;2022-08-01T01:46:57;93476.00;;;20.91;43.70
7586;BME280;12459;42.646;23.292;2022-08-01T02:02:01;93476.31;;;21.28;42.15
7586;BME280;12459;42.646;23.292;2022-08-01T02:17:09;93463.88;;;20.77;45.66
7586;BME280;12459;42.646;23.292;2022-08-01T02:32:14;93448.94;;;20.87;41.01
7586;BME280;12459;42.646;23.292;2022-08-01T02:47:21;93455.66;;;21.07;42.43
7586;BME280;12459;42.646;23.292;2022-08-01T03:02:24;93454.00;;;20.94;42.46
7586;BME280;12459;42.646;23.292;2022-08-01T03:17:26;93447.16;;;21.34;42.65
7586;BME280;12459;42.646;23.292;2022-08-01T03:32:29;93459.41;;;21.24;43.34
7586;BME280;12459;42.646;23.292;2022-08-01T03:47:32;93462.50;;;22.59;40.88
7586;BME280;12459;42.646;23.292;2022-08-01T04:02:45;93454.00;;;23.09;39.41
7586;BME280;12459;42.646;23.292;2022-08-01T04:17:47;93451.19;;;22.98;39.56
7586;BME280;12459;42.646;23.292;2022-08-01T04:32:49;93472.16;;;24.73;37.15
7586;BME280;12459;42.646;23.292;2022-08-01T04:47:53;93455.97;;;25.26;37.17
7586;BME280;12459;42.646;23.292;2022-08-01T05:02:55;93454.00;;;26.64;34.76
7586;BME280;12459;42.646;23.292;2022-08-01T05:17:57;93459.16;;;27.93;34.15
7586;BME280;12459;42.646;23.292;2022-08-01T05:32:58;93451.53;;;27.81;34.38
7586;BME280;12459;42.646;23.292;2022-08-01T05:48:00;93457.34;;;28.20;33.97
7586;BME280;12459;42.646;23.292;2022-08-01T06:03:02;93461.59;;;28.78;31.55
7586;BME280;12459;42.646;23.292;2022-08-01T06:18:03;93464.03;;;30.17;32.35
7586;BME280;12459;42.646;23.292;2022-08-01T06:33:06;93472.88;;;30.02;32.65
7586;BME280;12459;42.646;23.292;2022-08-01T06:48:07;93446.38;;;30.33;31.88
7586;BME280;12459;42.646;23.292;2022-08-01T07:03:09;93458.06;;;28.45;35.13
7586;BME280;12459;42.646;23.292;2022-08-01T07:18:11;93452.16;;;30.90;32.18
7586;BME280;12459;42.646;23.292;2022-08-01T07:33:12;93456.78;;;30.01;33.01
7586;BME280;12459;42.646;23.292;2022-08-01T07:48:14;93462.94;;;29.67;32.82
7586;BME280;12459;42.646;23.292;2022-08-01T08:03:16;93463.72;;;30.34;33.57
7586;BME280;12459;42.646;23.292;2022-08-01T08:18:17;93460.63;;;29.84;33.79
7586;BME280;12459;42.646;23.292;2022-08-01T08:33:19;93463.72;;;30.34;31.99
7586;BME280;12459;42.646;23.292;2022-08-01T08:48:21;93455.13;;;29.39;33.52
7586;BME280;12459;42.646;23.292;2022-08-01T09:03:28;93445.31;;;30.10;31.71
7586;BME280;12459;42.646;23.292;2022-08-01T09:18:33;93440.63;;;29.92;31.69
7586;BME280;12459;42.646;23.292;2022-08-01T10:19:10;93412.53;;;30.40;33.02
7586;BME280;12459;42.646;23.292;2022-08-01T10:34:15;93391.66;;;31.93;30.75
7586;BME280;12459;42.646;23.292;2022-08-01T10:49:24;93405.63;;;32.16;30.33
7586;BME280;12459;42.646;23.292;2022-08-01T11:04:41;93400.75;;;31.16;31.68
7586;BME280;12459;42.646;23.292;2022-08-01T11:35:05;93383.34;;;29.79;33.81
7586;BME280;12459;42.646;23.292;2022-08-01T11:50:07;93369.72;;;29.94;33.59
7586;BME280;12459;42.646;23.292;2022-08-01T12:05:29;93367.31;;;29.64;33.95
7586;BME280;12459;42.646;23.292;2022-08-01T12:20:33;93375.91;;;29.87;33.54
7586;BME280;12459;42.646;23.292;2022-08-01T12:35:36;93372.47;;;28.51;35.67
7586;BME280;12459;42.646;23.292;2022-08-01T12:50:39;93385.97;;;28.54;35.86
7586;BME280;12459;42.646;23.292;2022-08-01T13:05:42;93368.91;;;28.18;35.86
7586;BME280;12459;42.646;23.292;2022-08-01T13:20:45;93356.47;;;29.79;33.84
7586;BME280;12459;42.646;23.292;2022-08-01T13:35:54;93343.03;;;30.10;32.48
7586;BME280;12459;42.646;23.292;2022-08-01T13:50:55;93332.44;;;29.74;34.27
7586;BME280;12459;42.646;23.292;2022-08-01T14:06:17;93343.84;;;28.54;35.51
7586;BME280;12459;42.646;23.292;2022-08-01T14:21:19;93337.56;;;28.40;35.64
7586;BME280;12459;42.646;23.292;2022-08-01T14:36:21;93352.16;;;28.99;35.32
7586;BME280;12459;42.646;23.292;2022-08-01T14:51:31;93353.84;;;29.02;34.99
7586;BME280;12459;42.646;23.292;2022-08-01T15:06:35;93352.00;;;29.23;34.63
7586;BME280;12459;42.646;23.292;2022-08-01T15:21:37;93356.56;;;28.25;36.02
7586;BME280;12459;42.646;23.292;2022-08-01T15:36:42;93352.03;;;29.50;35.06
7586;BME280;12459;42.646;23.292;2022-08-01T15:51:44;93358.78;;;28.45;35.05
7586;BME280;12459;42.646;23.292;2022-08-01T16:06:46;93351.63;;;27.99;37.28
7586;BME280;12459;42.646;23.292;2022-08-01T16:21:48;93361.19;;;27.30;36.59
7586;BME280;12459;42.646;23.292;2022-08-01T16:36:50;93358.03;;;27.21;36.59
7586;BME280;12459;42.646;23.292;2022-08-01T16:51:52;93367.09;;;27.16;36.32
7586;BME280;12459;42.646;23.292;2022-08-01T17:06:54;93381.97;;;26.36;38.08
7586;BME280;12459;42.646;23.292;2022-08-01T17:21:56;93387.94;;;26.40;38.28
7586;BME280;12459;42.646;23.292;2022-08-01T17:36:57;93402.66;;;25.90;36.72
7586;BME280;12459;42.646;23.292;2022-08-01T17:51:59;93414.53;;;25.46;36.25
7586;BME280;12459;42.646;23.292;2022-08-01T18:07:00;93439.75;;;25.39;37.44
7586;BME280;12459;42.646;23.292;2022-08-01T18:22:04;93467.19;;;24.89;38.01
7586;BME280;12459;42.646;23.292;2022-08-01T18:37:25;93488.59;;;24.68;39.16
7586;BME280;12459;42.646;23.292;2022-08-01T18:52:30;93501.03;;;24.63;39.85
7586;BME280;12459;42.646;23.292;2022-08-01T19:07:32;93516.94;;;24.37;40.93
7586;BME280;12459;42.646;23.292;2022-08-01T19:22:54;93534.22;;;24.11;41.06
7586;BME280;12459;42.646;23.292;2022-08-01T19:37:56;93544.03;;;23.49;43.09
7586;BME280;12459;42.646;23.292;2022-08-01T19:52:59;93548.47;;;23.10;45.94
7586;BME280;12459;42.646;23.292;2022-08-01T20:08:03;93541.34;;;22.72;47.79
7586;BME280;12459;42.646;23.292;2022-08-01T20:23:07;93553.72;;;22.67;48.18
7586;BME280;12459;42.646;23.292;2022-08-01T20:38:09;93551.94;;;22.38;50.42
7586;BME280;12459;42.646;23.292;2022-08-01T20:53:14;93559.59;;;21.79;51.51
7586;BME280;12459;42.646;23.292;2022-08-01T21:08:16;93544.75;;;22.00;52.34
7586;BME280;12459;42.646;23.292;2022-08-01T21:23:39;93551.38;;;21.58;52.12
7586;BME280;12459;42.646;23.292;2022-08-01T21:38:43;93541.63;;;21.87;51.32
7586;BME280;12459;42.646;23.292;2022-08-01T21:53:54;93533.69;;;21.89;49.47
7586;BME280;12459;42.646;23.292;2022-08-01T22:16:06;93527.59;;;22.14;49.98
7586;BME280;12459;42.646;23.292;2022-08-01T22:31:10;93519.66;;;21.96;48.73
7586;BME280;12459;42.646;23.292;2022-08-01T23:01:29;93503.41;;;22.27;45.44
7586;BME280;12459;42.646;23.292;2022-08-01T23:16:33;93498.50;;;22.32;46.10
7586;BME280;12459;42.646;23.292;2022-08-01T23:31:35;93493.38;;;21.98;46.08
7586;BME280;12459;42.646;23.292;2022-08-01T23:46:57;93487.69;;;21.82;45.90
